sensor_id;sensor_type;location;lat;lon;timestamp;temperature;humidity
8662;DHT22;29684;47.722;9.388;2024-01-27T00:01:38;5.40;99.90
8662;DHT22;29684;47.722;9.388;2024-01-27T00:04:22;5.40;99.90
8662;DHT22;29684;47.722;9.388;2024-01-27T00:07:06;5.50;99.90
8662;DHT22;29684;47.722;9.388;2024-01-27T00:09:50;5.60;99.90
8662;DHT22;29684;47.722;9.388;2024-01-27T00:12:36;5.60;99.90
8662;DHT22;29684;47.722;9.388;2024-01-27T00:15:20;5.50;99.90
8662;DHT22;29684;47.722;9.388;2024-01-27T00:18:04;5.50;99.90
8662;DHT22;29684;47.722;9.388;2024-01-27T00:20:49;5.50;99.90
8662;DHT22;29684;47.722;9.388;2024-01-27T00:23:33;5.50;99.90
8662;DHT22;29684;47.722;9.388;2024-01-27T00:26:18;5.40;99.90
8662;DHT22;29684;47.722;9.388;2024-01-27T00:29:02;5.50;99.90
8662;DHT22;29684;47.722;9.388;2024-01-27T00:31:46;5.50;99.90
8662;DHT22;29684;47.722;9.388;2024-01-27T00:34:30;5.50;99.90
8662;DHT22;29684;47.722;9.388;2024-01-27T00:37:14;5.40;99.90
8662;DHT22;29684;47.722;9.388;2024-01-27T00:39:58;5.40;99.90
8662;DHT22;29684;47.722;9.388;2024-01-27T00:42:43;5.30;99.90
8662;DHT22;29684;47.722;9.388;2024-01-27T00:45:27;5.40;99.90
8662;DHT22;29684;47.722;9.388;2024-01-27T00:48:12;5.30;99.90
8662;DHT22;29684;47.722;9.388;2024-01-27T00:50:56;5.30;99.90
8662;DHT22;29684;47.722;9.388;2024-01-27T00:53:40;5.40;99.90
8662;DHT22;29684;47.722;9.388;2024-01-27T00:56:24;5.40;99.90
8662;DHT22;29684;47.722;9.388;2024-01-27T00:59:09;5.40;99.90
8662;DHT22;29684;47.722;9.388;2024-01-27T01:01:53;5.10;99.90
8662;DHT22;29684;47.722;9.388;2024-01-27T01:04:37;5.00;99.90
8662;DHT22;29684;47.722;9.388;2024-01-27T01:07:21;4.90;99.90
8662;DHT22;29684;47.722;9.388;2024-01-27T01:10:05;4.90;99.90
8662;DHT22;29684;47.722;9.388;2024-01-27T01:12:50;5.00;99.90
8662;DHT22;29684;47.722;9.388;2024-01-27T01:15:34;5.10;99.90
8662;DHT22;29684;47.722;9.388;2024-01-27T01:18:19;5.00;99.90
8662;DHT22;29684;47.722;9.388;2024-01-27T01:21:03;5.10;99.90
8662;DHT22;29684;47.722;9.388;2024-01-27T01:23:47;5.30;99.90
8662;DHT22;29684;47.722;9.388;2024-01-27T01:26:32;5.30;99.90
8662;DHT22;29684;47.722;9.388;2024-01-27T01:29:16;5.20;99.90
8662;DHT22;29684;47.722;9.388;2024-01-27T01:32:00;5.20;99.90
8662;DHT22;29684;47.722;9.388;2024-01-27T01:34:48;5.10;99.90
8662;DHT22;29684;47.722;9.388;2024-01-27T01:37:32;5.10;99.90
8662;DHT22;29684;47.722;9.388;2024-01-27T01:40:16;5.20;99.90
8662;DHT22;29684;47.722;9.388;2024-01-27T01:43:00;5.10;99.90
8662;DHT22;29684;47.722;9.388;2024-01-27T01:45:44;5.00;99.90
8662;DHT22;29684;47.722;9.388;2024-01-27T01:48:28;5.00;99.90
8662;DHT22;29684;47.722;9.388;2024-01-27T01:51:13;5.20;99.90
8662;DHT22;29684;47.722;9.388;2024-01-27T01:53:58;5.20;99.90
8662;DHT22;29684;47.722;9.388;2024-01-27T01:56:43;5.30;99.90
8662;DHT22;29684;47.722;9.388;2024-01-27T01:59:27;5.40;99.90
8662;DHT22;29684;47.722;9.388;2024-01-27T02:02:12;5.40;99.90
8662;DHT22;29684;47.722;9.388;2024-01-27T02:04:56;5.30;99.90
8662;DHT22;29684;47.722;9.388;2024-01-27T02:07:40;5.30;99.90
8662;DHT22;29684;47.722;9.388;2024-01-27T02:10:25;5.10;99.90
8662;DHT22;29684;47.722;9.388;2024-01-27T02:13:20;5.00;99.90
8662;DHT22;29684;47.722;9.388;2024-01-27T02:16:04;4.90;99.90
8662;DHT22;29684;47.722;9.388;2024-01-27T02:18:49;4.90;99.90
8662;DHT22;29684;47.722;9.388;2024-01-27T02:21:33;4.80;99.90
8662;DHT22;29684;47.722;9.388;2024-01-27T02:24:17;4.70;99.90
8662;DHT22;29684;47.722;9.388;2024-01-27T02:27:02;4.60;99.90
8662;DHT22;29684;47.722;9.388;2024-01-27T02:29:46;4.50;99.90
8662;DHT22;29684;47.722;9.388;2024-01-27T02:32:30;4.50;99.90
8662;DHT22;29684;47.722;9.388;2024-01-27T02:35:14;4.30;99.90
8662;DHT22;29684;47.722;9.388;2024-01-27T02:37:58;4.20;99.90
8662;DHT22;29684;47.722;9.388;2024-01-27T02:40:43;4.20;99.90
8662;DHT22;29684;47.722;9.388;2024-01-27T02:43:27;4.00;99.90
8662;DHT22;29684;47.722;9.388;2024-01-27T02:46:12;4.10;99.90
8662;DHT22;29684;47.722;9.388;2024-01-27T02:48:57;4.10;99.90
8662;DHT22;29684;47.722;9.388;2024-01-27T02:51:41;4.00;99.90
8662;DHT22;29684;47.722;9.388;2024-01-27T02:54:25;4.00;99.90
8662;DHT22;29684;47.722;9.388;2024-01-27T02:57:11;4.00;99.90
8662;DHT22;29684;47.722;9.388;2024-01-27T02:59:55;4.20;99.90
8662;DHT22;29684;47.722;9.388;2024-01-27T03:02:39;4.30;99.90
8662;DHT22;29684;47.722;9.388;2024-01-27T03:05:23;4.30;99.90
8662;DHT22;29684;47.722;9.388;2024-01-27T03:08:08;4.30;99.90
8662;DHT22;29684;47.722;9.388;2024-01-27T03:10:52;4.40;99.90
8662;DHT22;29684;47.722;9.388;2024-01-27T03:13:36;6.10;99.90
8662;DHT22;29684;47.722;9.388;2024-01-27T03:16:20;4.00;99.90
8662;DHT22;29684;47.722;9.388;2024-01-27T03:19:04;3.80;99.90
8662;DHT22;29684;47.722;9.388;2024-01-27T03:21:49;3.60;99.90
8662;DHT22;29684;47.722;9.388;2024-01-27T03:24:33;3.50;99.90
8662;DHT22;29684;47.722;9.388;2024-01-27T03:27:17;3.40;99.90
8662;DHT22;29684;47.722;9.388;2024-01-27T03:30:01;3.30;99.90
8662;DHT22;29684;47.722;9.388;2024-01-27T03:32:46;3.20;99.90
8662;DHT22;29684;47.722;9.388;2024-01-27T03:35:31;3.10;99.90
8662;DHT22;29684;47.722;9.388;2024-01-27T03:38:15;3.00;99.90
8662;DHT22;29684;47.722;9.388;2024-01-27T03:40:59;2.90;99.90
8662;DHT22;29684;47.722;9.388;2024-01-27T03:43:43;4.40;99.90
8662;DHT22;29684;47.722;9.388;2024-01-27T03:46:27;2.90;99.90
8662;DHT22;29684;47.722;9.388;2024-01-27T03:49:11;3.10;99.90
8662;DHT22;29684;47.722;9.388;2024-01-27T03:51:55;3.40;99.90
8662;DHT22;29684;47.722;9.388;2024-01-27T03:54:40;3.60;99.90
8662;DHT22;29684;47.722;9.388;2024-01-27T03:57:23;3.80;99.90
8662;DHT22;29684;47.722;9.388;2024-01-27T04:00:08;3.70;99.90
8662;DHT22;29684;47.722;9.388;2024-01-27T04:02:52;3.50;99.90
8662;DHT22;29684;47.722;9.388;2024-01-27T04:05:37;3.30;99.90
8662;DHT22;29684;47.722;9.388;2024-01-27T04:08:21;3.10;99.90
8662;DHT22;29684;47.722;9.388;2024-01-27T04:11:05;3.00;99.90
8662;DHT22;29684;47.722;9.388;2024-01-27T04:13:50;2.90;99.90
8662;DHT22;29684;47.722;9.388;2024-01-27T04:16:34;2.80;99.90
8662;DHT22;29684;47.722;9.388;2024-01-27T04:19:18;2.70;99.90
8662;DHT22;29684;47.722;9.388;2024-01-27T04:22:03;2.60;99.90
8662;DHT22;29684;47.722;9.388;2024-01-27T04:24:48;2.50;99.90
8662;DHT22;29684;47.722;9.388;2024-01-27T04:27:36;2.40;99.90
8662;DHT22;29684;47.722;9.388;2024-01-27T04:30:20;2.40;99.90
8662;DHT22;29684;47.722;9.388;2024-01-27T04:33:04;2.40;99.90
8662;DHT22;29684;47.722;9.388;2024-01-27T04:35:51;2.40;99.90
8662;DHT22;29684;47.722;9.388;2024-01-27T04:38:36;2.30;99.90
8662;DHT22;29684;47.722;9.388;2024-01-27T04:41:20;2.30;99.90
8662;DHT22;29684;47.722;9.388;2024-01-27T04:44:04;2.20;99.90
8662;DHT22;29684;47.722;9.388;2024-01-27T04:46:48;2.30;99.90
8662;DHT22;29684;47.722;9.388;2024-01-27T04:49:32;2.30;99.90
8662;DHT22;29684;47.722;9.388;2024-01-27T04:52:16;2.20;99.90
8662;DHT22;29684;47.722;9.388;2024-01-27T04:55:01;2.10;99.90
8662;DHT22;29684;47.722;9.388;2024-01-27T04:57:45;2.10;99.90
8662;DHT22;29684;47.722;9.388;2024-01-27T05:00:29;2.00;99.90
8662;DHT22;29684;47.722;9.388;2024-01-27T05:03:14;2.00;99.90
8662;DHT22;29684;47.722;9.388;2024-01-27T05:05:58;2.00;99.90
8662;DHT22;29684;47.722;9.388;2024-01-27T05:08:43;2.00;99.90
8662;DHT22;29684;47.722;9.388;2024-01-27T05:11:30;1.90;99.90
8662;DHT22;29684;47.722;9.388;2024-01-27T05:14:17;1.80;99.90
8662;DHT22;29684;47.722;9.388;2024-01-27T05:17:02;1.90;99.90
8662;DHT22;29684;47.722;9.388;2024-01-27T05:19:46;1.80;99.90
8662;DHT22;29684;47.722;9.388;2024-01-27T05:22:30;1.70;99.90
8662;DHT22;29684;47.722;9.388;2024-01-27T05:25:14;1.70;99.90
8662;DHT22;29684;47.722;9.388;2024-01-27T05:28:01;1.50;99.90
8662;DHT22;29684;47.722;9.388;2024-01-27T05:30:46;1.60;99.90
8662;DHT22;29684;47.722;9.388;2024-01-27T05:33:30;1.70;99.90
8662;DHT22;29684;47.722;9.388;2024-01-27T05:36:14;1.80;99.90
8662;DHT22;29684;47.722;9.388;2024-01-27T05:38:58;1.50;99.90
8662;DHT22;29684;47.722;9.388;2024-01-27T05:41:42;1.60;99.90
8662;DHT22;29684;47.722;9.388;2024-01-27T05:44:26;1.70;99.90
8662;DHT22;29684;47.722;9.388;2024-01-27T05:47:10;1.50;99.90
8662;DHT22;29684;47.722;9.388;2024-01-27T05:49:55;1.70;99.90
8662;DHT22;29684;47.722;9.388;2024-01-27T05:52:39;1.50;99.90
8662;DHT22;29684;47.722;9.388;2024-01-27T05:55:23;1.30;99.90
8662;DHT22;29684;47.722;9.388;2024-01-27T05:58:07;1.30;99.90
8662;DHT22;29684;47.722;9.388;2024-01-27T06:00:51;1.30;99.90
8662;DHT22;29684;47.722;9.388;2024-01-27T06:03:36;1.40;99.90
8662;DHT22;29684;47.722;9.388;2024-01-27T06:06:20;1.30;99.90
8662;DHT22;29684;47.722;9.388;2024-01-27T06:09:04;1.30;99.90
8662;DHT22;29684;47.722;9.388;2024-01-27T06:11:48;1.10;99.90
8662;DHT22;29684;47.722;9.388;2024-01-27T06:14:32;1.30;99.90
8662;DHT22;29684;47.722;9.388;2024-01-27T06:17:16;1.30;99.90
8662;DHT22;29684;47.722;9.388;2024-01-27T06:20:00;1.30;99.90
8662;DHT22;29684;47.722;9.388;2024-01-27T06:22:44;1.40;99.90
8662;DHT22;29684;47.722;9.388;2024-01-27T06:25:28;1.40;99.90
8662;DHT22;29684;47.722;9.388;2024-01-27T06:28:12;1.40;99.90
8662;DHT22;29684;47.722;9.388;2024-01-27T06:30:56;1.40;99.90
8662;DHT22;29684;47.722;9.388;2024-01-27T06:33:42;1.20;99.90
8662;DHT22;29684;47.722;9.388;2024-01-27T06:36:27;1.30;99.90
8662;DHT22;29684;47.722;9.388;2024-01-27T06:39:11;1.30;99.90
8662;DHT22;29684;47.722;9.388;2024-01-27T06:41:55;1.10;99.90
8662;DHT22;29684;47.722;9.388;2024-01-27T06:44:39;0.80;99.90
8662;DHT22;29684;47.722;9.388;2024-01-27T06:47:24;0.60;99.90
8662;DHT22;29684;47.722;9.388;2024-01-27T06:50:08;0.60;99.90
8662;DHT22;29684;47.722;9.388;2024-01-27T06:52:53;0.80;99.90
8662;DHT22;29684;47.722;9.388;2024-01-27T06:55:37;0.70;99.90
8662;DHT22;29684;47.722;9.388;2024-01-27T06:58:21;0.60;99.90
8662;DHT22;29684;47.722;9.388;2024-01-27T07:01:06;0.50;99.90
8662;DHT22;29684;47.722;9.388;2024-01-27T07:03:51;0.50;99.90
8662;DHT22;29684;47.722;9.388;2024-01-27T07:06:36;0.40;99.90
8662;DHT22;29684;47.722;9.388;2024-01-27T07:09:20;0.40;99.90
8662;DHT22;29684;47.722;9.388;2024-01-27T07:12:04;0.40;99.90
8662;DHT22;29684;47.722;9.388;2024-01-27T07:14:49;0.60;99.90
8662;DHT22;29684;47.722;9.388;2024-01-27T07:17:33;0.80;99.90
8662;DHT22;29684;47.722;9.388;2024-01-27T07:20:18;0.80;99.90
8662;DHT22;29684;47.722;9.388;2024-01-27T07:23:02;1.10;99.90
8662;DHT22;29684;47.722;9.388;2024-01-27T07:25:47;0.90;99.90
8662;DHT22;29684;47.722;9.388;2024-01-27T07:28:31;0.80;99.90
8662;DHT22;29684;47.722;9.388;2024-01-27T07:31:15;0.80;99.90
8662;DHT22;29684;47.722;9.388;2024-01-27T07:33:59;0.70;99.90
8662;DHT22;29684;47.722;9.388;2024-01-27T07:36:44;0.80;99.90
8662;DHT22;29684;47.722;9.388;2024-01-27T07:39:28;0.90;99.90
8662;DHT22;29684;47.722;9.388;2024-01-27T07:42:12;0.90;99.90
8662;DHT22;29684;47.722;9.388;2024-01-27T07:44:56;0.80;99.90
8662;DHT22;29684;47.722;9.388;2024-01-27T07:47:41;1.00;99.90
8662;DHT22;29684;47.722;9.388;2024-01-27T07:50:25;1.10;99.90
8662;DHT22;29684;47.722;9.388;2024-01-27T07:53:09;1.10;99.90
8662;DHT22;29684;47.722;9.388;2024-01-27T07:55:53;1.40;99.90
8662;DHT22;29684;47.722;9.388;2024-01-27T07:58:38;1.30;99.90
8662;DHT22;29684;47.722;9.388;2024-01-27T08:01:22;1.20;99.90
8662;DHT22;29684;47.722;9.388;2024-01-27T08:04:06;1.10;99.90
8662;DHT22;29684;47.722;9.388;2024-01-27T08:06:51;1.10;99.90
8662;DHT22;29684;47.722;9.388;2024-01-27T08:09:36;1.30;99.90
8662;DHT22;29684;47.722;9.388;2024-01-27T08:12:22;2.00;99.90
8662;DHT22;29684;47.722;9.388;2024-01-27T08:15:07;2.30;99.90
8662;DHT22;29684;47.722;9.388;2024-01-27T08:17:51;2.50;99.90
8662;DHT22;29684;47.722;9.388;2024-01-27T08:20:35;2.60;99.90
8662;DHT22;29684;47.722;9.388;2024-01-27T08:23:19;2.40;99.90
8662;DHT22;29684;47.722;9.388;2024-01-27T08:26:04;2.10;99.90
8662;DHT22;29684;47.722;9.388;2024-01-27T08:28:48;1.80;99.90
8662;DHT22;29684;47.722;9.388;2024-01-27T08:31:33;1.70;99.90
8662;DHT22;29684;47.722;9.388;2024-01-27T08:34:17;2.00;99.90
8662;DHT22;29684;47.722;9.388;2024-01-27T08:37:02;2.50;99.90
8662;DHT22;29684;47.722;9.388;2024-01-27T08:39:46;2.90;99.90
8662;DHT22;29684;47.722;9.388;2024-01-27T08:42:30;3.10;99.90
8662;DHT22;29684;47.722;9.388;2024-01-27T08:45:14;3.40;99.90
8662;DHT22;29684;47.722;9.388;2024-01-27T08:47:59;3.40;99.90
8662;DHT22;29684;47.722;9.388;2024-01-27T08:50:43;3.30;99.90
8662;DHT22;29684;47.722;9.388;2024-01-27T08:53:28;3.50;99.90
8662;DHT22;29684;47.722;9.388;2024-01-27T08:56:12;3.90;99.90
8662;DHT22;29684;47.722;9.388;2024-01-27T08:58:57;4.80;99.90
8662;DHT22;29684;47.722;9.388;2024-01-27T09:01:42;5.40;99.90
8662;DHT22;29684;47.722;9.388;2024-01-27T09:04:26;6.40;99.90
8662;DHT22;29684;47.722;9.388;2024-01-27T09:07:11;6.80;99.90
8662;DHT22;29684;47.722;9.388;2024-01-27T09:09:55;6.70;99.90
8662;DHT22;29684;47.722;9.388;2024-01-27T09:12:39;6.40;99.90
8662;DHT22;29684;47.722;9.388;2024-01-27T09:15:24;5.70;99.90
8662;DHT22;29684;47.722;9.388;2024-01-27T09:18:08;5.10;99.90
8662;DHT22;29684;47.722;9.388;2024-01-27T09:20:52;4.70;99.90
8662;DHT22;29684;47.722;9.388;2024-01-27T09:23:36;5.00;99.90
8662;DHT22;29684;47.722;9.388;2024-01-27T09:26:21;4.80;99.90
8662;DHT22;29684;47.722;9.388;2024-01-27T09:29:07;4.50;99.90
8662;DHT22;29684;47.722;9.388;2024-01-27T09:31:51;4.70;99.90
8662;DHT22;29684;47.722;9.388;2024-01-27T09:34:35;4.60;99.90
8662;DHT22;29684;47.722;9.388;2024-01-27T09:37:19;4.90;99.90
8662;DHT22;29684;47.722;9.388;2024-01-27T09:40:03;5.40;99.90
8662;DHT22;29684;47.722;9.388;2024-01-27T09:42:51;6.00;99.90
8662;DHT22;29684;47.722;9.388;2024-01-27T09:45:36;6.30;99.90
8662;DHT22;29684;47.722;9.388;2024-01-27T09:48:20;6.40;99.90
8662;DHT22;29684;47.722;9.388;2024-01-27T09:51:08;6.90;99.90
8662;DHT22;29684;47.722;9.388;2024-01-27T09:53:52;6.90;99.90
8662;DHT22;29684;47.722;9.388;2024-01-27T09:56:37;6.40;99.90
8662;DHT22;29684;47.722;9.388;2024-01-27T09:59:22;6.10;99.90
8662;DHT22;29684;47.722;9.388;2024-01-27T10:02:09;5.80;99.90
8662;DHT22;29684;47.722;9.388;2024-01-27T10:04:55;6.10;99.90
8662;DHT22;29684;47.722;9.388;2024-01-27T10:07:40;6.00;99.90
8662;DHT22;29684;47.722;9.388;2024-01-27T10:10:24;6.00;99.90
8662;DHT22;29684;47.722;9.388;2024-01-27T10:13:10;6.70;99.90
8662;DHT22;29684;47.722;9.388;2024-01-27T10:16:03;7.40;99.90
8662;DHT22;29684;47.722;9.388;2024-01-27T10:18:59;8.10;99.90
8662;DHT22;29684;47.722;9.388;2024-01-27T10:21:47;8.60;99.90
8662;DHT22;29684;47.722;9.388;2024-01-27T10:24:32;9.20;99.90
8662;DHT22;29684;47.722;9.388;2024-01-27T10:27:18;9.60;99.90
8662;DHT22;29684;47.722;9.388;2024-01-27T10:30:04;10.00;99.90
8662;DHT22;29684;47.722;9.388;2024-01-27T10:32:56;10.60;99.90
8662;DHT22;29684;47.722;9.388;2024-01-27T10:35:44;11.20;99.90
8662;DHT22;29684;47.722;9.388;2024-01-27T10:38:35;11.50;99.90
8662;DHT22;29684;47.722;9.388;2024-01-27T10:41:24;11.90;99.90
8662;DHT22;29684;47.722;9.388;2024-01-27T10:44:15;11.20;99.90
8662;DHT22;29684;47.722;9.388;2024-01-27T10:47:02;11.60;99.90
8662;DHT22;29684;47.722;9.388;2024-01-27T10:49:48;12.30;99.90
8662;DHT22;29684;47.722;9.388;2024-01-27T10:52:32;13.30;99.90
8662;DHT22;29684;47.722;9.388;2024-01-27T10:55:17;12.90;99.90
8662;DHT22;29684;47.722;9.388;2024-01-27T10:58:02;13.00;99.90
8662;DHT22;29684;47.722;9.388;2024-01-27T11:00:48;14.10;99.90
8662;DHT22;29684;47.722;9.388;2024-01-27T14:13:24;15.10;99.90
8662;DHT22;29684;47.722;9.388;2024-01-27T14:16:08;12.40;99.90
8662;DHT22;29684;47.722;9.388;2024-01-27T14:18:52;11.80;99.90
8662;DHT22;29684;47.722;9.388;2024-01-27T14:21:36;11.50;99.90
8662;DHT22;29684;47.722;9.388;2024-01-27T14:24:21;11.00;99.90
8662;DHT22;29684;47.722;9.388;2024-01-27T14:27:08;10.70;99.90
8662;DHT22;29684;47.722;9.388;2024-01-27T14:29:54;10.80;99.90
8662;DHT22;29684;47.722;9.388;2024-01-27T14:32:39;10.20;99.90
8662;DHT22;29684;47.722;9.388;2024-01-27T14:35:23;9.90;99.90
8662;DHT22;29684;47.722;9.388;2024-01-27T14:38:07;9.80;99.90
8662;DHT22;29684;47.722;9.388;2024-01-27T14:40:53;9.70;99.90
8662;DHT22;29684;47.722;9.388;2024-01-27T14:43:37;9.90;99.90
8662;DHT22;29684;47.722;9.388;2024-01-27T14:46:22;9.90;99.90
8662;DHT22;29684;47.722;9.388;2024-01-27T14:49:07;9.70;99.90
8662;DHT22;29684;47.722;9.388;2024-01-27T14:51:51;9.70;99.90
8662;DHT22;29684;47.722;9.388;2024-01-27T14:54:36;9.70;99.90
8662;DHT22;29684;47.722;9.388;2024-01-27T14:57:21;9.40;99.90
8662;DHT22;29684;47.722;9.388;2024-01-27T15:00:05;9.40;99.90
8662;DHT22;29684;47.722;9.388;2024-01-27T15:02:49;9.30;99.90
8662;DHT22;29684;47.722;9.388;2024-01-27T15:05:33;9.20;99.90
8662;DHT22;29684;47.722;9.388;2024-01-27T15:08:21;9.10;99.90
8662;DHT22;29684;47.722;9.388;2024-01-27T15:11:05;9.20;99.90
8662;DHT22;29684;47.722;9.388;2024-01-27T15:13:49;9.20;99.90
8662;DHT22;29684;47.722;9.388;2024-01-27T15:16:33;9.00;99.90
8662;DHT22;29684;47.722;9.388;2024-01-27T15:19:18;9.00;99.90
8662;DHT22;29684;47.722;9.388;2024-01-27T15:22:03;8.90;99.90
8662;DHT22;29684;47.722;9.388;2024-01-27T15:24:48;8.90;99.90
8662;DHT22;29684;47.722;9.388;2024-01-27T15:27:32;8.90;99.90
8662;DHT22;29684;47.722;9.388;2024-01-27T15:30:17;8.80;99.90
8662;DHT22;29684;47.722;9.388;2024-01-27T15:33:02;8.60;99.90
8662;DHT22;29684;47.722;9.388;2024-01-27T15:35:46;8.60;99.90
8662;DHT22;29684;47.722;9.388;2024-01-27T15:38:31;8.60;99.90
8662;DHT22;29684;47.722;9.388;2024-01-27T15:41:15;8.50;99.90
8662;DHT22;29684;47.722;9.388;2024-01-27T15:44:02;8.40;99.90
8662;DHT22;29684;47.722;9.388;2024-01-27T15:46:47;8.30;99.90
8662;DHT22;29684;47.722;9.388;2024-01-27T15:49:31;8.20;99.90
8662;DHT22;29684;47.722;9.388;2024-01-27T15:52:15;8.10;99.90
8662;DHT22;29684;47.722;9.388;2024-01-27T15:54:59;8.10;99.90
8662;DHT22;29684;47.722;9.388;2024-01-27T15:57:43;8.00;99.90
8662;DHT22;29684;47.722;9.388;2024-01-27T16:00:28;7.90;99.90
8662;DHT22;29684;47.722;9.388;2024-01-27T16:03:12;7.70;99.90
8662;DHT22;29684;47.722;9.388;2024-01-27T16:05:57;7.60;99.90
8662;DHT22;29684;47.722;9.388;2024-01-27T16:08:41;7.60;99.90
8662;DHT22;29684;47.722;9.388;2024-01-27T16:11:25;7.50;99.90
8662;DHT22;29684;47.722;9.388;2024-01-27T16:14:09;7.40;99.90
8662;DHT22;29684;47.722;9.388;2024-01-27T16:16:54;7.30;99.90
8662;DHT22;29684;47.722;9.388;2024-01-27T16:19:38;7.20;99.90
8662;DHT22;29684;47.722;9.388;2024-01-27T16:22:22;7.20;99.90
8662;DHT22;29684;47.722;9.388;2024-01-27T16:25:07;7.10;99.90
8662;DHT22;29684;47.722;9.388;2024-01-27T16:27:51;7.10;99.90
8662;DHT22;29684;47.722;9.388;2024-01-27T16:30:36;7.00;99.90
8662;DHT22;29684;47.722;9.388;2024-01-27T16:33:21;7.00;99.90
8662;DHT22;29684;47.722;9.388;2024-01-27T16:36:05;6.80;99.90
8662;DHT22;29684;47.722;9.388;2024-01-27T16:38:51;6.90;99.90
8662;DHT22;29684;47.722;9.388;2024-01-27T16:41:36;6.80;99.90
8662;DHT22;29684;47.722;9.388;2024-01-27T16:44:20;5.40;99.90
8662;DHT22;29684;47.722;9.388;2024-01-27T16:47:06;6.70;99.90
8662;DHT22;29684;47.722;9.388;2024-01-27T16:49:51;6.70;99.90
8662;DHT22;29684;47.722;9.388;2024-01-27T16:52:36;6.60;99.90
8662;DHT22;29684;47.722;9.388;2024-01-27T16:55:21;6.50;99.90
8662;DHT22;29684;47.722;9.388;2024-01-27T16:58:05;6.50;99.90
8662;DHT22;29684;47.722;9.388;2024-01-27T17:00:50;6.20;99.90
8662;DHT22;29684;47.722;9.388;2024-01-27T17:03:36;6.30;99.90
8662;DHT22;29684;47.722;9.388;2024-01-27T17:06:20;6.10;99.90
8662;DHT22;29684;47.722;9.388;2024-01-27T17:09:04;6.00;99.90
8662;DHT22;29684;47.722;9.388;2024-01-27T17:11:48;6.00;99.90
8662;DHT22;29684;47.722;9.388;2024-01-27T17:14:32;6.20;99.90
8662;DHT22;29684;47.722;9.388;2024-01-27T17:17:16;6.30;99.90
8662;DHT22;29684;47.722;9.388;2024-01-27T17:20:00;6.30;99.90
8662;DHT22;29684;47.722;9.388;2024-01-27T17:22:45;6.20;99.90
8662;DHT22;29684;47.722;9.388;2024-01-27T17:25:29;6.10;99.90
8662;DHT22;29684;47.722;9.388;2024-01-27T17:28:13;6.00;99.90
8662;DHT22;29684;47.722;9.388;2024-01-27T17:30:58;6.00;99.90
8662;DHT22;29684;47.722;9.388;2024-01-27T17:33:42;5.90;99.90
8662;DHT22;29684;47.722;9.388;2024-01-27T17:36:26;5.80;99.90
8662;DHT22;29684;47.722;9.388;2024-01-27T17:39:11;5.90;99.90
8662;DHT22;29684;47.722;9.388;2024-01-27T17:41:55;5.70;99.90
8662;DHT22;29684;47.722;9.388;2024-01-27T17:44:39;5.50;99.90
8662;DHT22;29684;47.722;9.388;2024-01-27T17:47:24;5.40;99.90
8662;DHT22;29684;47.722;9.388;2024-01-27T17:50:08;5.30;99.90
8662;DHT22;29684;47.722;9.388;2024-01-27T17:52:54;5.20;99.90
8662;DHT22;29684;47.722;9.388;2024-01-27T17:55:38;5.10;99.90
8662;DHT22;29684;47.722;9.388;2024-01-27T17:58:22;5.10;99.90
8662;DHT22;29684;47.722;9.388;2024-01-27T18:01:06;5.20;99.90
8662;DHT22;29684;47.722;9.388;2024-01-27T18:03:50;5.10;99.90
8662;DHT22;29684;47.722;9.388;2024-01-27T18:06:34;5.10;99.90
8662;DHT22;29684;47.722;9.388;2024-01-27T18:09:18;5.10;99.90
8662;DHT22;29684;47.722;9.388;2024-01-27T18:12:03;5.10;99.90
8662;DHT22;29684;47.722;9.388;2024-01-27T18:14:47;5.10;99.90
8662;DHT22;29684;47.722;9.388;2024-01-27T18:17:31;5.00;99.90
8662;DHT22;29684;47.722;9.388;2024-01-27T18:20:17;5.00;99.90
8662;DHT22;29684;47.722;9.388;2024-01-27T18:23:01;4.90;99.90
8662;DHT22;29684;47.722;9.388;2024-01-27T18:25:45;5.00;99.90
8662;DHT22;29684;47.722;9.388;2024-01-27T18:28:30;5.20;99.90
8662;DHT22;29684;47.722;9.388;2024-01-27T18:31:15;5.30;99.90
8662;DHT22;29684;47.722;9.388;2024-01-27T18:34:00;5.40;99.90
8662;DHT22;29684;47.722;9.388;2024-01-27T18:36:45;5.50;99.90
8662;DHT22;29684;47.722;9.388;2024-01-27T18:39:29;5.50;99.90
8662;DHT22;29684;47.722;9.388;2024-01-27T18:42:13;5.50;99.90
8662;DHT22;29684;47.722;9.388;2024-01-27T18:44:57;5.40;99.90
8662;DHT22;29684;47.722;9.388;2024-01-27T18:47:41;5.40;99.90
8662;DHT22;29684;47.722;9.388;2024-01-27T18:50:26;5.30;99.90
8662;DHT22;29684;47.722;9.388;2024-01-27T18:53:11;5.20;99.90
8662;DHT22;29684;47.722;9.388;2024-01-27T18:55:56;5.00;99.90
8662;DHT22;29684;47.722;9.388;2024-01-27T18:58:41;4.80;99.90
8662;DHT22;29684;47.722;9.388;2024-01-27T19:01:25;4.70;99.90
8662;DHT22;29684;47.722;9.388;2024-01-27T19:04:09;4.50;99.90
8662;DHT22;29684;47.722;9.388;2024-01-27T19:06:53;4.30;99.90
8662;DHT22;29684;47.722;9.388;2024-01-27T19:09:37;4.20;99.90
8662;DHT22;29684;47.722;9.388;2024-01-27T19:12:21;4.20;99.90
8662;DHT22;29684;47.722;9.388;2024-01-27T19:15:06;4.20;99.90
8662;DHT22;29684;47.722;9.388;2024-01-27T19:17:51;4.10;99.90
8662;DHT22;29684;47.722;9.388;2024-01-27T19:20:36;4.00;99.90
8662;DHT22;29684;47.722;9.388;2024-01-27T19:23:20;4.00;99.90
8662;DHT22;29684;47.722;9.388;2024-01-27T19:26:05;3.90;99.90
8662;DHT22;29684;47.722;9.388;2024-01-27T19:28:49;3.90;99.90
8662;DHT22;29684;47.722;9.388;2024-01-27T19:31:34;3.90;99.90
8662;DHT22;29684;47.722;9.388;2024-01-27T19:34:20;4.00;99.90
8662;DHT22;29684;47.722;9.388;2024-01-27T19:37:05;3.90;99.90
8662;DHT22;29684;47.722;9.388;2024-01-27T19:39:49;3.80;99.90
8662;DHT22;29684;47.722;9.388;2024-01-27T19:42:33;3.90;99.90
8662;DHT22;29684;47.722;9.388;2024-01-27T19:45:17;3.80;99.90
8662;DHT22;29684;47.722;9.388;2024-01-27T19:48:01;3.60;99.90
8662;DHT22;29684;47.722;9.388;2024-01-27T19:50:46;3.60;99.90
8662;DHT22;29684;47.722;9.388;2024-01-27T19:53:30;3.50;99.90
8662;DHT22;29684;47.722;9.388;2024-01-27T19:56:14;3.50;99.90
8662;DHT22;29684;47.722;9.388;2024-01-27T19:58:58;3.40;99.90
8662;DHT22;29684;47.722;9.388;2024-01-27T20:01:42;3.40;99.90
8662;DHT22;29684;47.722;9.388;2024-01-27T20:04:27;4.00;99.90
8662;DHT22;29684;47.722;9.388;2024-01-27T20:07:11;3.40;99.90
8662;DHT22;29684;47.722;9.388;2024-01-27T20:09:56;3.30;99.90
8662;DHT22;29684;47.722;9.388;2024-01-27T20:12:43;3.30;99.90
8662;DHT22;29684;47.722;9.388;2024-01-27T20:15:27;3.30;99.90
8662;DHT22;29684;47.722;9.388;2024-01-27T20:18:13;3.30;99.90
8662;DHT22;29684;47.722;9.388;2024-01-27T20:20:58;3.20;99.90
8662;DHT22;29684;47.722;9.388;2024-01-27T20:23:42;3.20;99.90
8662;DHT22;29684;47.722;9.388;2024-01-27T20:26:26;3.20;99.90
8662;DHT22;29684;47.722;9.388;2024-01-27T20:29:10;3.30;99.90
8662;DHT22;29684;47.722;9.388;2024-01-27T20:31:54;3.30;99.90
8662;DHT22;29684;47.722;9.388;2024-01-27T20:34:40;3.30;99.90
8662;DHT22;29684;47.722;9.388;2024-01-27T20:37:24;3.30;99.90
8662;DHT22;29684;47.722;9.388;2024-01-27T20:40:08;3.20;99.90
8662;DHT22;29684;47.722;9.388;2024-01-27T20:42:52;3.00;99.90
8662;DHT22;29684;47.722;9.388;2024-01-27T20:45:37;2.90;99.90
8662;DHT22;29684;47.722;9.388;2024-01-27T20:48:21;2.90;99.90
8662;DHT22;29684;47.722;9.388;2024-01-27T20:51:05;2.70;99.90
8662;DHT22;29684;47.722;9.388;2024-01-27T20:53:49;2.70;99.90
8662;DHT22;29684;47.722;9.388;2024-01-27T20:56:34;2.60;99.90
8662;DHT22;29684;47.722;9.388;2024-01-27T20:59:18;2.70;99.90
8662;DHT22;29684;47.722;9.388;2024-01-27T21:02:03;2.70;99.90